Página principal
METAR-TAF:

METAR-TAF

Aeroportos :

Lossiemouth, Escócia

latitude: 57-43N, longitude: 003-19W, altura: 13 m

Observação actual do tempo

O boletim foi feito há 1 hora e 25 minutos, às 03:50 UTC
Vento 4 kt de su-sudoeste
Temperatura 6°C
Humidade 75%
Pressão 1008 hPa
Visibilidade 10 km ou mais
Nuvens dispersasa uma altura de 3700 ft
Nuvens fragmentadasa uma altura de 5000 ft

METAR: EGQS 280350Z 21004KT 9999 SCT037 BKN050 06/02 Q1008 RMK BLU

Hora: 05:15 (05:15 UTC)

Previsão

O boletim foi feito há 3 horas e 23 minutos, às 01:52 UTC
Previsão válida de 28 às 03 UTC a 28 às 21 UTC
Vento 10 kt de sudoeste
Visibilidade 10 km ou mais
Nuvens dispersasa uma altura de 4500 ft
Probabilidade 30% :
Temporariamente
de 28 às 09 UTC a 28 às 18 UTC
Vento 18 kt de su-sudoeste com rajadas de 28 kt

TAF: EGQS 280152Z 2803/2821 22010KT 9999 SCT045 PROB30 TEMPO 2809/2818 21018G28KT

Observações e previsões do tempo de mais de 4000 aeroportos (mensagens METAR e TAF).

As estações disponíveis são os pontos amarelos e vermelhos sobre o mapa.

Mova o rato sobre o mapa para ver o nome da estação.

Depois clique no ponto para visualizar as observações e previsões meteorológicas.

Para alterar o mapa : clique nos botões verdes com uma cruz preta para aumentar o zoom; no botão verde com uma pitada de zoom; ou nas setas verdes para mapas adjacentes.


METAR-TAF: